sensor_id;sensor_type;location;lat;lon;timestamp;pressure;altitude;pressure_sealevel;temperature;humidity
29903;BME280;30288;50.514;9.678;2022-07-10T00:04:05;99430.56;;;13.85;100.00
29903;BME280;30288;50.514;9.678;2022-07-10T00:06:23;99436.13;;;13.68;100.00
29903;BME280;30288;50.514;9.678;2022-07-10T00:08:34;99428.59;;;13.65;100.00
29903;BME280;30288;50.514;9.678;2022-07-10T00:10:46;99430.72;;;13.51;100.00
29903;BME280;30288;50.514;9.678;2022-07-10T00:13:03;99416.31;;;13.53;100.00
29903;BME280;30288;50.514;9.678;2022-07-10T00:15:15;99422.41;;;13.46;100.00
29903;BME280;30288;50.514;9.678;2022-07-10T00:17:32;99416.84;;;13.35;100.00
29903;BME280;30288;50.514;9.678;2022-07-10T00:34:05;99411.03;;;12.34;100.00
29903;BME280;30288;50.514;9.678;2022-07-10T00:36:23;99418.88;;;12.23;100.00
29903;BME280;30288;50.514;9.678;2022-07-10T00:38:34;99420.75;;;12.15;100.00
29903;BME280;30288;50.514;9.678;2022-07-10T00:40:51;99410.88;;;12.06;100.00
29903;BME280;30288;50.514;9.678;2022-07-10T00:43:02;99421.19;;;11.97;100.00
29903;BME280;30288;50.514;9.678;2022-07-10T00:45:19;99416.25;;;11.91;100.00
29903;BME280;30288;50.514;9.678;2022-07-10T00:47:30;99417.31;;;11.82;100.00
29903;BME280;30288;50.514;9.678;2022-07-10T00:49:49;99425.91;;;11.71;100.00
29903;BME280;30288;50.514;9.678;2022-07-10T00:52:05;99419.38;;;11.62;100.00
29903;BME280;30288;50.514;9.678;2022-07-10T00:54:17;99420.41;;;11.54;100.00
29903;BME280;30288;50.514;9.678;2022-07-10T00:56:29;99426.41;;;11.48;100.00
29903;BME280;30288;50.514;9.678;2022-07-10T00:58:41;99426.53;;;11.42;100.00
29903;BME280;30288;50.514;9.678;2022-07-10T01:00:53;99422.59;;;11.27;100.00
29903;BME280;30288;50.514;9.678;2022-07-10T01:03:05;99417.63;;;11.24;100.00
29903;BME280;30288;50.514;9.678;2022-07-10T01:05:19;99425.47;;;11.11;100.00
29903;BME280;30288;50.514;9.678;2022-07-10T01:07:31;99418.94;;;11.01;100.00
29903;BME280;30288;50.514;9.678;2022-07-10T01:09:48;99422.41;;;10.93;100.00
29903;BME280;30288;50.514;9.678;2022-07-10T01:12:01;99420.78;;;10.91;100.00
29903;BME280;30288;50.514;9.678;2022-07-10T01:14:20;99420.72;;;10.95;100.00
29903;BME280;30288;50.514;9.678;2022-07-10T01:16:32;99421.56;;;10.93;100.00
29903;BME280;30288;50.514;9.678;2022-07-10T01:18:43;99423.41;;;10.85;100.00
29903;BME280;30288;50.514;9.678;2022-07-10T01:21:02;99415.16;;;10.77;100.00
29903;BME280;30288;50.514;9.678;2022-07-10T01:23:14;99419.41;;;10.75;100.00
29903;BME280;30288;50.514;9.678;2022-07-10T01:25:31;99428.72;;;10.70;100.00
29903;BME280;30288;50.514;9.678;2022-07-10T01:27:43;99420.22;;;10.77;100.00
29903;BME280;30288;50.514;9.678;2022-07-10T01:30:00;99420.22;;;10.77;100.00
29903;BME280;30288;50.514;9.678;2022-07-10T01:32:11;99424.41;;;10.76;100.00
29903;BME280;30288;50.514;9.678;2022-07-10T01:34:23;99415.16;;;10.77;100.00
29903;BME280;30288;50.514;9.678;2022-07-10T01:36:42;99418.72;;;10.67;100.00
29903;BME280;30288;50.514;9.678;2022-07-10T01:38:54;99422.13;;;10.63;100.00
29903;BME280;30288;50.514;9.678;2022-07-10T01:41:12;99429.78;;;10.58;100.00
29903;BME280;30288;50.514;9.678;2022-07-10T01:43:23;99413.44;;;10.79;100.00
29903;BME280;30288;50.514;9.678;2022-07-10T01:45:34;99423.59;;;10.76;100.00
29903;BME280;30288;50.514;9.678;2022-07-10T01:47:51;99411.97;;;10.69;100.00
29903;BME280;30288;50.514;9.678;2022-07-10T01:50:05;99422.97;;;10.63;100.00
29903;BME280;30288;50.514;9.678;2022-07-10T01:52:20;99417.09;;;10.63;100.00
29903;BME280;30288;50.514;9.678;2022-07-10T01:54:37;99417.13;;;10.60;100.00
29903;BME280;30288;50.514;9.678;2022-07-10T01:56:48;99421.28;;;10.64;100.00
29903;BME280;30288;50.514;9.678;2022-07-10T01:59:05;99419.63;;;10.61;100.00
29903;BME280;30288;50.514;9.678;2022-07-10T02:01:23;99417.81;;;10.69;100.00
29903;BME280;30288;50.514;9.678;2022-07-10T02:03:35;99417.47;;;10.89;100.00
29903;BME280;30288;50.514;9.678;2022-07-10T02:05:59;99428.09;;;11.06;100.00
29903;BME280;30288;50.514;9.678;2022-07-10T02:08:12;99426.22;;;11.14;100.00
29903;BME280;30288;50.514;9.678;2022-07-10T02:10:30;99429.31;;;11.28;100.00
29903;BME280;30288;50.514;9.678;2022-07-10T02:12:36;99422.44;;;11.36;100.00
29903;BME280;30288;50.514;9.678;2022-07-10T02:14:54;99422.25;;;11.46;100.00
29903;BME280;30288;50.514;9.678;2022-07-10T02:17:08;99421.38;;;11.48;100.00
29903;BME280;30288;50.514;9.678;2022-07-10T02:19:20;99423.84;;;11.50;100.00
29903;BME280;30288;50.514;9.678;2022-07-10T02:21:35;99421.25;;;11.54;100.00
29903;BME280;30288;50.514;9.678;2022-07-10T02:23:54;99418.53;;;11.62;100.00
29903;BME280;30288;50.514;9.678;2022-07-10T02:26:06;99414.25;;;11.67;100.00
29903;BME280;30288;50.514;9.678;2022-07-10T02:28:24;99415.16;;;11.63;100.00
29903;BME280;30288;50.514;9.678;2022-07-10T02:30:35;99409.38;;;11.59;100.00
29903;BME280;30288;50.514;9.678;2022-07-10T02:32:52;99412.03;;;11.52;100.00
29903;BME280;30288;50.514;9.678;2022-07-10T02:35:05;99409.63;;;11.46;100.00
29903;BME280;30288;50.514;9.678;2022-07-10T02:37:22;99404.81;;;11.35;100.00
29903;BME280;30288;50.514;9.678;2022-07-10T02:39:36;99407.28;;;11.36;100.00
29903;BME280;30288;50.514;9.678;2022-07-10T02:41:49;99404.88;;;11.32;100.00
29903;BME280;30288;50.514;9.678;2022-07-10T02:44:06;99402.25;;;11.36;100.00
29903;BME280;30288;50.514;9.678;2022-07-10T02:46:17;99402.31;;;11.33;100.00
29903;BME280;30288;50.514;9.678;2022-07-10T02:48:34;99401.50;;;11.31;100.00
29903;BME280;30288;50.514;9.678;2022-07-10T02:50:46;99393.19;;;11.28;100.00
29903;BME280;30288;50.514;9.678;2022-07-10T02:53:03;99391.00;;;11.11;100.00
29903;BME280;30288;50.514;9.678;2022-07-10T02:55:17;99393.75;;;10.99;100.00
29903;BME280;30288;50.514;9.678;2022-07-10T02:57:29;99384.66;;;10.92;100.00
29903;BME280;30288;50.514;9.678;2022-07-10T02:59:46;99391.59;;;10.79;100.00
29903;BME280;30288;50.514;9.678;2022-07-10T03:01:57;99383.38;;;10.70;100.00
29903;BME280;30288;50.514;9.678;2022-07-10T03:04:09;99382.00;;;10.53;100.00
29903;BME280;30288;50.514;9.678;2022-07-10T03:06:26;99375.44;;;10.45;100.00
29903;BME280;30288;50.514;9.678;2022-07-10T03:08:37;99382.19;;;10.41;100.00
29903;BME280;30288;50.514;9.678;2022-07-10T03:10:56;99377.38;;;10.29;100.00
29903;BME280;30288;50.514;9.678;2022-07-10T03:13:08;99376.59;;;10.26;100.00
29903;BME280;30288;50.514;9.678;2022-07-10T03:15:20;99380.84;;;10.22;100.00
29903;BME280;30288;50.514;9.678;2022-07-10T03:17:38;99382.59;;;10.17;100.00
29903;BME280;30288;50.514;9.678;2022-07-10T03:19:50;99382.69;;;10.11;100.00
29903;BME280;30288;50.514;9.678;2022-07-10T03:22:01;99386.03;;;10.10;100.00
29903;BME280;30288;50.514;9.678;2022-07-10T03:24:18;99383.44;;;10.18;100.00
29903;BME280;30288;50.514;9.678;2022-07-10T03:26:31;99389.25;;;10.21;100.00
29903;BME280;30288;50.514;9.678;2022-07-10T03:28:49;99384.09;;;10.30;100.00
29903;BME280;30288;50.514;9.678;2022-07-10T03:31:00;99384.69;;;10.43;100.00
29903;BME280;30288;50.514;9.678;2022-07-10T03:33:12;99382.75;;;10.59;100.00
29903;BME280;30288;50.514;9.678;2022-07-10T03:35:29;99370.84;;;10.67;100.00
29903;BME280;30288;50.514;9.678;2022-07-10T03:37:41;99379.97;;;10.74;100.00
29903;BME280;30288;50.514;9.678;2022-07-10T03:39:58;99383.22;;;10.79;100.00
29903;BME280;30288;50.514;9.678;2022-07-10T03:42:11;99385.63;;;10.83;100.00
29903;BME280;30288;50.514;9.678;2022-07-10T03:44:29;99388.13;;;10.85;100.00
29903;BME280;30288;50.514;9.678;2022-07-10T03:46:42;99391.34;;;10.93;100.00
29903;BME280;30288;50.514;9.678;2022-07-10T03:49:01;99393.75;;;10.99;100.00
29903;BME280;30288;50.514;9.678;2022-07-10T03:51:13;99389.47;;;11.04;100.00
29903;BME280;30288;50.514;9.678;2022-07-10T03:53:31;99389.28;;;11.13;100.00
29903;BME280;30288;50.514;9.678;2022-07-10T03:55:45;99385.72;;;11.23;100.00
29903;BME280;30288;50.514;9.678;2022-07-10T03:58:07;99380.44;;;11.35;100.00
29903;BME280;30288;50.514;9.678;2022-07-10T04:00:17;99387.84;;;11.43;100.00
29903;BME280;30288;50.514;9.678;2022-07-10T04:02:36;99393.44;;;11.56;100.00
29903;BME280;30288;50.514;9.678;2022-07-10T04:04:48;99392.25;;;11.72;100.00
29903;BME280;30288;50.514;9.678;2022-07-10T04:07:06;99391.22;;;11.82;100.00
29903;BME280;30288;50.514;9.678;2022-07-10T04:09:20;99392.72;;;11.89;100.00
29903;BME280;30288;50.514;9.678;2022-07-10T04:11:38;99399.38;;;11.93;100.00
29903;BME280;30288;50.514;9.678;2022-07-10T04:13:52;99396.78;;;11.96;100.00
29903;BME280;30288;50.514;9.678;2022-07-10T04:16:06;99401.66;;;12.04;100.00
29903;BME280;30288;50.514;9.678;2022-07-10T04:18:27;99398.97;;;12.11;100.00
29903;BME280;30288;50.514;9.678;2022-07-10T04:20:39;99397.88;;;12.21;100.00
29903;BME280;30288;50.514;9.678;2022-07-10T04:22:57;99390.09;;;12.31;100.00
29903;BME280;30288;50.514;9.678;2022-07-10T04:25:10;99397.34;;;12.43;100.00
29903;BME280;30288;50.514;9.678;2022-07-10T04:27:28;99400.56;;;12.49;100.00
29903;BME280;30288;50.514;9.678;2022-07-10T04:29:42;99396.31;;;12.50;100.00
29903;BME280;30288;50.514;9.678;2022-07-10T04:31:54;99391.44;;;12.44;100.00
29903;BME280;30288;50.514;9.678;2022-07-10T04:34:11;99394.81;;;12.43;100.00
29903;BME280;30288;50.514;9.678;2022-07-10T04:36:22;99396.00;;;12.30;100.00
29903;BME280;30288;50.514;9.678;2022-07-10T04:38:39;99395.41;;;12.18;100.00
29903;BME280;30288;50.514;9.678;2022-07-10T04:40:51;99392.47;;;12.01;100.00
29903;BME280;30288;50.514;9.678;2022-07-10T04:43:03;99417.75;;;11.98;100.00
29903;BME280;30288;50.514;9.678;2022-07-10T04:45:22;99416.06;;;12.00;100.00
29903;BME280;30288;50.514;9.678;2022-07-10T04:47:34;99412.94;;;11.89;100.00
29903;BME280;30288;50.514;9.678;2022-07-10T04:49:45;99406.16;;;11.91;100.00
29903;BME280;30288;50.514;9.678;2022-07-10T04:52:03;99405.94;;;12.00;100.00
29903;BME280;30288;50.514;9.678;2022-07-10T04:54:16;99405.75;;;12.08;100.00
29903;BME280;30288;50.514;9.678;2022-07-10T04:56:34;99401.22;;;12.22;100.00
29903;BME280;30288;50.514;9.678;2022-07-10T04:58:46;99400.25;;;12.27;100.00
29903;BME280;30288;50.514;9.678;2022-07-10T05:01:05;99404.84;;;12.46;100.00
29903;BME280;30288;50.514;9.678;2022-07-10T05:03:17;99402.56;;;12.69;100.00
29903;BME280;30288;50.514;9.678;2022-07-10T05:05:28;99403.94;;;12.82;100.00
29903;BME280;30288;50.514;9.678;2022-07-10T05:07:45;99408.66;;;12.94;100.00
29903;BME280;30288;50.514;9.678;2022-07-10T05:09:56;99400.88;;;13.02;100.00
29903;BME280;30288;50.514;9.678;2022-07-10T05:12:13;99408.03;;;13.19;100.00
29903;BME280;30288;50.514;9.678;2022-07-10T05:14:24;99405.94;;;13.33;100.00
29903;BME280;30288;50.514;9.678;2022-07-10T05:16:44;99403.09;;;13.43;100.00
29903;BME280;30288;50.514;9.678;2022-07-10T05:18:56;99405.41;;;13.51;100.00
29903;BME280;30288;50.514;9.678;2022-07-10T05:21:08;99412.22;;;13.49;100.00
29903;BME280;30288;50.514;9.678;2022-07-10T05:23:25;99410.16;;;13.62;100.00
29903;BME280;30288;50.514;9.678;2022-07-10T05:25:36;99411.06;;;13.59;100.00
29903;BME280;30288;50.514;9.678;2022-07-10T05:27:48;99413.56;;;13.61;100.00
29903;BME280;30288;50.514;9.678;2022-07-10T05:30:07;99413.34;;;13.68;100.00
29903;BME280;30288;50.514;9.678;2022-07-10T05:32:21;99412.97;;;13.80;100.00
29903;BME280;30288;50.514;9.678;2022-07-10T05:34:33;99411.94;;;13.87;100.00
29903;BME280;30288;50.514;9.678;2022-07-10T05:36:50;99425.66;;;14.07;100.00
29903;BME280;30288;50.514;9.678;2022-07-10T05:39:02;99418.66;;;14.15;100.00
29903;BME280;30288;50.514;9.678;2022-07-10T05:41:19;99419.94;;;14.28;100.00
29903;BME280;30288;50.514;9.678;2022-07-10T05:43:32;99424.81;;;14.34;100.00
29903;BME280;30288;50.514;9.678;2022-07-10T05:45:43;99428.13;;;14.36;100.00
29903;BME280;30288;50.514;9.678;2022-07-10T05:48:00;99424.75;;;14.35;100.00
29903;BME280;30288;50.514;9.678;2022-07-10T05:50:12;99434.69;;;14.43;100.00
29903;BME280;30288;50.514;9.678;2022-07-10T05:52:23;99438.66;;;14.50;100.00
29903;BME280;30288;50.514;9.678;2022-07-10T05:54:40;99435.28;;;14.50;100.00
29903;BME280;30288;50.514;9.678;2022-07-10T05:56:51;99432.59;;;14.54;100.00
29903;BME280;30288;50.514;9.678;2022-07-10T05:59:08;99429.88;;;14.60;100.00
29903;BME280;30288;50.514;9.678;2022-07-10T06:01:19;99422.72;;;14.73;100.00
29903;BME280;30288;50.514;9.678;2022-07-10T06:03:38;99427.53;;;14.54;100.00
29903;BME280;30288;50.514;9.678;2022-07-10T06:05:50;99421.88;;;14.72;100.00
29903;BME280;30288;50.514;9.678;2022-07-10T06:08:07;99425.19;;;14.74;100.00
29903;BME280;30288;50.514;9.678;2022-07-10T06:10:19;99426.06;;;14.73;100.00
29903;BME280;30288;50.514;9.678;2022-07-10T06:12:30;99430.25;;;14.74;100.00
29903;BME280;30288;50.514;9.678;2022-07-10T06:14:42;99436.34;;;14.69;100.00
29903;BME280;30288;50.514;9.678;2022-07-10T06:16:53;99433.47;;;14.79;100.00
29903;BME280;30288;50.514;9.678;2022-07-10T06:19:06;99435.44;;;14.71;100.00
29903;BME280;30288;50.514;9.678;2022-07-10T06:21:24;99431.91;;;14.75;100.00
29903;BME280;30288;50.514;9.678;2022-07-10T06:23:36;99428.69;;;14.95;100.00
29903;BME280;30288;50.514;9.678;2022-07-10T06:25:53;99433.47;;;15.04;100.00
29903;BME280;30288;50.514;9.678;2022-07-10T06:28:04;99436.34;;;14.94;100.00
29903;BME280;30288;50.514;9.678;2022-07-10T06:30:21;99433.47;;;14.79;100.00
29903;BME280;30288;50.514;9.678;2022-07-10T06:32:32;99441.00;;;14.82;100.00
29903;BME280;30288;50.514;9.678;2022-07-10T06:34:52;99435.44;;;14.96;100.00
29903;BME280;30288;50.514;9.678;2022-07-10T06:37:05;99438.03;;;14.95;100.00
29903;BME280;30288;50.514;9.678;2022-07-10T06:39:16;99435.69;;;14.88;100.00
29903;BME280;30288;50.514;9.678;2022-07-10T06:41:27;99434.69;;;14.93;100.00
29903;BME280;30288;50.514;9.678;2022-07-10T06:43:39;99442.56;;;15.10;100.00
29903;BME280;30288;50.514;9.678;2022-07-10T06:45:50;99436.34;;;15.42;100.00
29903;BME280;30288;50.514;9.678;2022-07-10T06:48:02;99442.19;;;15.44;100.00
29903;BME280;30288;50.514;9.678;2022-07-10T06:50:14;99445.28;;;15.53;100.00
29903;BME280;30288;50.514;9.678;2022-07-10T06:52:25;99444.28;;;15.57;100.00
29903;BME280;30288;50.514;9.678;2022-07-10T06:54:42;99442.03;;;15.71;100.00
29903;BME280;30288;50.514;9.678;2022-07-10T06:56:54;99437.97;;;15.44;100.00
29903;BME280;30288;50.514;9.678;2022-07-10T06:59:05;99440.31;;;15.49;100.00
29903;BME280;30288;50.514;9.678;2022-07-10T07:01:22;99436.41;;;15.63;100.00
29903;BME280;30288;50.514;9.678;2022-07-10T07:03:33;99437.53;;;15.78;100.00
29903;BME280;30288;50.514;9.678;2022-07-10T07:05:52;99439.69;;;15.89;100.00
29903;BME280;30288;50.514;9.678;2022-07-10T07:08:04;99435.09;;;15.77;100.00
29903;BME280;30288;50.514;9.678;2022-07-10T07:10:21;99439.69;;;15.89;100.00
29903;BME280;30288;50.514;9.678;2022-07-10T07:12:33;99431.63;;;15.77;100.00
29903;BME280;30288;50.514;9.678;2022-07-10T07:14:51;99438.69;;;15.93;100.00
29903;BME280;30288;50.514;9.678;2022-07-10T07:17:04;99440.16;;;15.98;100.00
29903;BME280;30288;50.514;9.678;2022-07-10T07:19:18;99440.63;;;16.08;100.00
29903;BME280;30288;50.514;9.678;2022-07-10T07:21:35;99428.94;;;16.04;100.00
29903;BME280;30288;50.514;9.678;2022-07-10T07:23:59;99431.41;;;16.27;100.00
29903;BME280;30288;50.514;9.678;2022-07-10T07:26:12;99433.28;;;16.22;100.00
29903;BME280;30288;50.514;9.678;2022-07-10T07:28:23;99438.25;;;16.25;100.00
29903;BME280;30288;50.514;9.678;2022-07-10T07:30:34;99426.81;;;16.15;100.00
29903;BME280;30288;50.514;9.678;2022-07-10T07:32:47;99430.81;;;16.20;100.00
29903;BME280;30288;50.514;9.678;2022-07-10T07:35:05;99434.81;;;16.26;100.00
29903;BME280;30288;50.514;9.678;2022-07-10T07:37:19;99428.53;;;16.35;100.00
29903;BME280;30288;50.514;9.678;2022-07-10T07:39:38;99439.81;;;16.29;100.00
29903;BME280;30288;50.514;9.678;2022-07-10T07:41:50;99450.28;;;16.00;100.00
29903;BME280;30288;50.514;9.678;2022-07-10T07:44:02;99442.13;;;15.92;100.00
29903;BME280;30288;50.514;9.678;2022-07-10T07:46:19;99446.16;;;15.74;100.00
29903;BME280;30288;50.514;9.678;2022-07-10T07:48:33;99444.53;;;15.95;100.00
29903;BME280;30288;50.514;9.678;2022-07-10T07:50:46;99447.16;;;16.15;100.00
29903;BME280;30288;50.514;9.678;2022-07-10T07:53:06;99439.22;;;16.23;100.00
29903;BME280;30288;50.514;9.678;2022-07-10T07:55:19;99444.59;;;16.15;100.00
29903;BME280;30288;50.514;9.678;2022-07-10T07:57:37;99440.50;;;16.11;100.00
29903;BME280;30288;50.514;9.678;2022-07-10T07:59:50;99445.47;;;16.14;100.00
29903;BME280;30288;50.514;9.678;2022-07-10T08:02:01;99442.41;;;16.06;100.00
29903;BME280;30288;50.514;9.678;2022-07-10T08:04:18;99451.22;;;16.19;100.00
29903;BME280;30288;50.514;9.678;2022-07-10T08:06:30;99441.44;;;16.30;100.00
29903;BME280;30288;50.514;9.678;2022-07-10T08:08:44;99433.16;;;16.25;100.00
29903;BME280;30288;50.514;9.678;2022-07-10T08:11:01;99440.03;;;16.23;100.00
29903;BME280;30288;50.514;9.678;2022-07-10T08:13:12;99437.91;;;16.34;100.00
29903;BME280;30288;50.514;9.678;2022-07-10T09:14:39;99422.41;;;18.13;100.00
29903;BME280;30288;50.514;9.678;2022-07-10T09:16:56;99427.59;;;17.93;100.00
29903;BME280;30288;50.514;9.678;2022-07-10T09:24:48;99432.44;;;17.99;100.00
29903;BME280;30288;50.514;9.678;2022-07-10T09:27:07;99440.53;;;18.07;100.00
29903;BME280;30288;50.514;9.678;2022-07-10T09:29:19;99426.91;;;18.08;100.00
29903;BME280;30288;50.514;9.678;2022-07-10T09:31:48;99427.19;;;18.55;100.00
29903;BME280;30288;50.514;9.678;2022-07-10T09:34:00;99427.03;;;19.08;100.00
29903;BME280;30288;50.514;9.678;2022-07-10T09:36:12;99422.44;;;19.15;100.00
29903;BME280;30288;50.514;9.678;2022-07-10T09:38:23;99420.66;;;18.67;100.00
29903;BME280;30288;50.514;9.678;2022-07-10T09:43:50;99432.16;;;18.05;100.00
29903;BME280;30288;50.514;9.678;2022-07-10T09:46:08;99434.72;;;17.68;100.00
29903;BME280;30288;50.514;9.678;2022-07-10T09:48:26;99435.09;;;17.60;100.00
29903;BME280;30288;50.514;9.678;2022-07-10T09:50:33;99431.72;;;17.58;100.00
29903;BME280;30288;50.514;9.678;2022-07-10T09:52:52;99424.59;;;17.47;100.00
29903;BME280;30288;50.514;9.678;2022-07-10T09:55:05;99429.22;;;17.77;100.00
29903;BME280;30288;50.514;9.678;2022-07-10T09:57:27;99432.28;;;18.02;100.00
29903;BME280;30288;50.514;9.678;2022-07-10T09:59:40;99430.50;;;18.04;100.00
29903;BME280;30288;50.514;9.678;2022-07-10T10:01:52;99428.00;;;18.39;100.00
29903;BME280;30288;50.514;9.678;2022-07-10T10:04:12;99428.91;;;18.72;100.00
29903;BME280;30288;50.514;9.678;2022-07-10T10:06:27;99412.09;;;18.68;100.00
29903;BME280;30288;50.514;9.678;2022-07-10T10:08:49;99429.34;;;18.63;100.00
29903;BME280;30288;50.514;9.678;2022-07-10T10:11:07;99415.69;;;18.64;100.00
29903;BME280;30288;50.514;9.678;2022-07-10T10:13:24;99425.66;;;18.51;100.00
29903;BME280;30288;50.514;9.678;2022-07-10T10:15:43;99427.06;;;18.22;100.00
29903;BME280;30288;50.514;9.678;2022-07-10T10:17:58;99424.94;;;17.77;100.00
29903;BME280;30288;50.514;9.678;2022-07-10T10:20:18;99433.56;;;17.75;100.00
29903;BME280;30288;50.514;9.678;2022-07-10T10:22:44;99428.19;;;17.81;100.00
29903;BME280;30288;50.514;9.678;2022-07-10T10:24:57;99427.59;;;17.93;100.00
29903;BME280;30288;50.514;9.678;2022-07-10T10:27:15;99436.66;;;18.17;100.00
29903;BME280;30288;50.514;9.678;2022-07-10T10:29:27;99421.69;;;18.46;100.00
29903;BME280;30288;50.514;9.678;2022-07-10T10:31:39;99427.94;;;18.74;100.00
29903;BME280;30288;50.514;9.678;2022-07-10T10:33:58;99430.31;;;19.10;100.00
29903;BME280;30288;50.514;9.678;2022-07-10T10:36:15;99422.63;;;19.28;99.72
29903;BME280;30288;50.514;9.678;2022-07-10T10:39:00;99420.69;;;19.64;96.82
29903;BME280;30288;50.514;9.678;2022-07-10T10:41:25;99418.63;;;19.86;90.26
29903;BME280;30288;50.514;9.678;2022-07-10T10:43:37;99415.22;;;20.01;90.77
29903;BME280;30288;50.514;9.678;2022-07-10T10:45:54;99404.97;;;20.33;91.14
29903;BME280;30288;50.514;9.678;2022-07-10T10:48:07;99409.59;;;20.56;92.39
29903;BME280;30288;50.514;9.678;2022-07-10T10:50:40;99401.03;;;21.00;88.71
29903;BME280;30288;50.514;9.678;2022-07-10T10:53:02;99403.38;;;20.60;85.01
29903;BME280;30288;50.514;9.678;2022-07-10T10:55:08;99400.97;;;20.43;81.75
29903;BME280;30288;50.514;9.678;2022-07-10T10:57:36;99410.16;;;20.16;83.71
29903;BME280;30288;50.514;9.678;2022-07-10T10:59:53;99415.72;;;19.92;87.05
29903;BME280;30288;50.514;9.678;2022-07-10T11:02:21;99416.81;;;19.88;91.43
29903;BME280;30288;50.514;9.678;2022-07-10T11:04:39;99413.44;;;19.72;90.53
29903;BME280;30288;50.514;9.678;2022-07-10T11:06:54;99410.81;;;19.58;87.80
29903;BME280;30288;50.514;9.678;2022-07-10T11:09:25;99403.69;;;19.94;88.73
29903;BME280;30288;50.514;9.678;2022-07-10T11:11:42;99418.41;;;19.59;90.92
29903;BME280;30288;50.514;9.678;2022-07-10T11:13:57;99412.63;;;19.72;88.61
29903;BME280;30288;50.514;9.678;2022-07-10T11:16:14;99412.63;;;19.72;89.06
29903;BME280;30288;50.514;9.678;2022-07-10T11:18:26;99408.75;;;19.80;89.47
29903;BME280;30288;50.514;9.678;2022-07-10T11:20:41;99408.31;;;20.03;86.52
29903;BME280;30288;50.514;9.678;2022-07-10T11:23:31;99408.19;;;20.21;88.83
29903;BME280;30288;50.514;9.678;2022-07-10T11:25:54;99399.47;;;20.39;84.24
29903;BME280;30288;50.514;9.678;2022-07-10T11:28:22;99398.47;;;20.71;83.70
29903;BME280;30288;50.514;9.678;2022-07-10T11:30:46;99405.25;;;20.42;85.75
29903;BME280;30288;50.514;9.678;2022-07-10T11:33:04;99398.44;;;20.57;83.24
29903;BME280;30288;50.514;9.678;2022-07-10T11:35:16;99401.47;;;20.34;84.82
29903;BME280;30288;50.514;9.678;2022-07-10T11:37:35;99406.50;;;20.20;85.65
29903;BME280;30288;50.514;9.678;2022-07-10T11:39:46;99417.91;;;19.84;86.10
29903;BME280;30288;50.514;9.678;2022-07-10T11:42:06;99412.78;;;19.84;85.35
29903;BME280;30288;50.514;9.678;2022-07-10T11:44:18;99406.38;;;20.23;88.28
29903;BME280;30288;50.514;9.678;2022-07-10T11:46:31;99399.34;;;20.56;87.38
29903;BME280;30288;50.514;9.678;2022-07-10T12:04:23;99397.44;;;21.45;80.27
29903;BME280;30288;50.514;9.678;2022-07-10T12:06:42;99392.03;;;21.49;77.64
29903;BME280;30288;50.514;9.678;2022-07-10T12:08:55;99404.97;;;21.33;77.77
29903;BME280;30288;50.514;9.678;2022-07-10T12:11:12;99395.06;;;21.42;78.36
29903;BME280;30288;50.514;9.678;2022-07-10T12:13:29;99392.16;;;21.74;76.25
29903;BME280;30288;50.514;9.678;2022-07-10T12:15:43;99388.31;;;22.21;76.24
29903;BME280;30288;50.514;9.678;2022-07-10T12:18:00;99378.28;;;22.43;77.67
29903;BME280;30288;50.514;9.678;2022-07-10T12:20:15;99388.53;;;22.18;74.75
29903;BME280;30288;50.514;9.678;2022-07-10T12:22:32;99388.53;;;22.18;74.64
29903;BME280;30288;50.514;9.678;2022-07-10T12:24:44;99384.84;;;23.10;77.96
29903;BME280;30288;50.514;9.678;2022-07-10T12:27:03;99373.94;;;24.27;75.15
29903;BME280;30288;50.514;9.678;2022-07-10T12:29:21;99370.06;;;25.01;69.66
29903;BME280;30288;50.514;9.678;2022-07-10T12:31:29;99372.63;;;24.90;67.83
29903;BME280;30288;50.514;9.678;2022-07-10T12:33:51;99378.19;;;24.62;66.70
29903;BME280;30288;50.514;9.678;2022-07-10T12:36:08;99367.59;;;24.20;68.48
29903;BME280;30288;50.514;9.678;2022-07-10T12:38:21;99379.28;;;23.89;66.10
29903;BME280;30288;50.514;9.678;2022-07-10T12:40:38;99384.28;;;22.94;70.15
29903;BME280;30288;50.514;9.678;2022-07-10T12:43:01;99385.09;;;22.95;71.26
29903;BME280;30288;50.514;9.678;2022-07-10T12:45:21;99381.63;;;22.71;71.30
29903;BME280;30288;50.514;9.678;2022-07-10T12:47:44;99377.06;;;22.61;69.86
29903;BME280;30288;50.514;9.678;2022-07-10T12:50:01;99378.50;;;22.65;72.64
29903;BME280;30288;50.514;9.678;2022-07-10T12:52:27;99375.56;;;23.70;70.88
29903;BME280;30288;50.514;9.678;2022-07-10T12:54:45;99370.34;;;24.41;71.20
29903;BME280;30288;50.514;9.678;2022-07-10T12:56:58;99365.09;;;24.54;66.54
29903;BME280;30288;50.514;9.678;2022-07-10T12:59:13;99368.69;;;24.05;64.60
29903;BME280;30288;50.514;9.678;2022-07-10T13:01:40;99378.72;;;23.73;66.84
29903;BME280;30288;50.514;9.678;2022-07-10T13:04:00;99380.88;;;23.56;66.34
29903;BME280;30288;50.514;9.678;2022-07-10T13:06:06;99374.72;;;23.45;67.81
29903;BME280;30288;50.514;9.678;2022-07-10T13:08:26;99376.81;;;23.15;65.03
29903;BME280;30288;50.514;9.678;2022-07-10T13:10:38;99378.09;;;22.72;69.06
29903;BME280;30288;50.514;9.678;2022-07-10T13:12:55;99376.63;;;22.30;71.61
29903;BME280;30288;50.514;9.678;2022-07-10T13:15:08;99377.22;;;22.08;72.55
29903;BME280;30288;50.514;9.678;2022-07-10T13:17:29;99382.34;;;21.67;71.51
29903;BME280;30288;50.514;9.678;2022-07-10T13:19:41;99379.22;;;21.49;72.17
29903;BME280;30288;50.514;9.678;2022-07-10T13:21:58;99379.09;;;21.24;72.37
29903;BME280;30288;50.514;9.678;2022-07-10T13:24:13;99370.09;;;21.31;75.53
29903;BME280;30288;50.514;9.678;2022-07-10T13:26:31;99367.22;;;21.76;72.78
29903;BME280;30288;50.514;9.678;2022-07-10T13:28:42;99374.31;;;22.00;74.96
29903;BME280;30288;50.514;9.678;2022-07-10T13:30:53;99375.22;;;22.63;72.65